createdAt,value
2023-03-22T00:00:46.910Z,15.23
2023-03-22T00:02:48.938Z,14.67
2023-03-22T00:04:48.252Z,13.93
2023-03-22T00:06:43.987Z,13.87
2023-03-22T00:08:40.381Z,13.23
2023-03-22T00:10:38.354Z,13.90
2023-03-22T00:12:38.700Z,14.60
2023-03-22T00:14:36.489Z,13.80
2023-03-22T00:16:39.470Z,13.70
2023-03-22T00:18:38.405Z,13.80
2023-03-22T00:20:38.877Z,14.33
2023-03-22T00:22:35.616Z,15.13
2023-03-22T00:24:37.229Z,13.87
2023-03-22T00:26:35.420Z,14.47
2023-03-22T00:28:32.388Z,13.47
2023-03-22T00:30:32.945Z,14.27
2023-03-22T00:32:34.090Z,14.67
2023-03-22T00:34:34.445Z,14.57
2023-03-22T00:36:30.722Z,13.33
2023-03-22T00:38:42.541Z,14.67
2023-03-22T00:40:40.835Z,12.77
2023-03-22T00:42:38.058Z,13.43
2023-03-22T00:44:33.227Z,14.50
2023-03-22T00:46:28.827Z,13.60
2023-03-22T00:48:23.942Z,14.43
2023-03-22T00:50:19.764Z,13.83
2023-03-22T00:52:15.978Z,13.67
2023-03-22T00:54:11.923Z,14.27
2023-03-22T00:56:08.537Z,13.77
2023-03-22T00:58:04.090Z,14.83
2023-03-22T00:59:59.990Z,15.33
2023-03-22T01:01:55.922Z,16.23
2023-03-22T01:03:53.974Z,15.03
2023-03-22T01:05:49.371Z,15.63
2023-03-22T01:07:45.526Z,15.50
2023-03-22T01:09:40.515Z,14.90
2023-03-22T01:11:36.123Z,16.50
2023-03-22T01:13:31.809Z,16.07
2023-03-22T01:15:27.429Z,13.97
2023-03-22T01:17:22.531Z,15.47
2023-03-22T01:19:21.320Z,14.63
2023-03-22T01:21:18.483Z,14.10
2023-03-22T01:23:14.564Z,14.37
2023-03-22T01:25:10.969Z,14.47
2023-03-22T01:27:06.626Z,14.33
2023-03-22T01:29:01.681Z,14.47
2023-03-22T01:30:57.717Z,15.30
2023-03-22T01:32:52.795Z,14.67
2023-03-22T01:34:52.276Z,13.93
2023-03-22T01:36:47.732Z,14.33
2023-03-22T01:38:43.495Z,14.40
2023-03-22T01:40:39.029Z,13.77
2023-03-22T01:42:34.658Z,13.60
2023-03-22T01:44:32.948Z,14.57
2023-03-22T01:46:34.654Z,14.73
2023-03-22T01:48:34.288Z,15.23
2023-03-22T01:50:33.619Z,14.57
2023-03-22T01:52:29.152Z,13.50
2023-03-22T01:54:29.507Z,13.70
2023-03-22T01:56:26.909Z,14.27
2023-03-22T01:58:25.676Z,14.27
2023-03-22T02:00:21.428Z,12.63
2023-03-22T02:02:19.348Z,13.67
2023-03-22T02:04:20.061Z,12.90
2023-03-22T02:06:18.666Z,13.63
2023-03-22T02:08:15.160Z,14.43
2023-03-22T02:10:14.415Z,14.37
2023-03-22T02:12:24.350Z,14.73
2023-03-22T02:14:45.443Z,14.33
2023-03-22T02:16:53.535Z,13.63
2023-03-22T02:19:00.501Z,13.53
2023-03-22T02:21:28.846Z,13.20
2023-03-22T02:24:08.405Z,13.03
2023-03-22T02:26:34.633Z,14.07
2023-03-22T02:28:44.198Z,13.97
2023-03-22T02:31:12.878Z,13.83
2023-03-22T02:33:41.634Z,13.20
2023-03-22T02:35:44.739Z,13.20
2023-03-22T02:38:08.884Z,13.70
2023-03-22T02:40:15.326Z,12.97
2023-03-22T02:42:26.379Z,13.97
2023-03-22T02:44:26.548Z,12.87
2023-03-22T02:46:27.923Z,12.70
2023-03-22T02:48:31.302Z,12.80
2023-03-22T02:50:29.703Z,14.00
2023-03-22T02:52:33.025Z,14.90
2023-03-22T02:54:35.629Z,14.20
2023-03-22T02:56:39.297Z,13.53
2023-03-22T02:58:45.922Z,13.00
2023-03-22T03:00:43.014Z,13.67
2023-03-22T03:02:39.632Z,13.40
2023-03-22T03:04:39.189Z,12.73
2023-03-22T03:06:38.972Z,13.43
2023-03-22T03:08:34.066Z,13.80
2023-03-22T03:10:30.478Z,13.10
2023-03-22T03:12:30.320Z,13.50
2023-03-22T03:14:27.833Z,13.87
2023-03-22T03:16:26.654Z,13.40
2023-03-22T03:18:36.017Z,13.50
2023-03-22T03:20:42.605Z,13.63
2023-03-22T03:22:48.192Z,14.70
2023-03-22T03:24:51.835Z,13.63
2023-03-22T03:26:56.316Z,14.10
2023-03-22T03:28:58.379Z,14.17
2023-03-22T03:30:59.831Z,14.13
2023-03-22T03:32:59.248Z,14.60
2023-03-22T03:34:59.411Z,15.57
2023-03-22T03:36:59.039Z,14.63
2023-03-22T03:38:57.415Z,15.63
2023-03-22T03:40:55.634Z,15.57
2023-03-22T03:42:57.040Z,14.80
2023-03-22T03:44:54.668Z,14.33
2023-03-22T03:46:51.737Z,14.43
2023-03-22T03:48:50.743Z,15.93
2023-03-22T03:50:46.329Z,15.87
2023-03-22T03:52:41.644Z,15.37
2023-03-22T03:54:36.715Z,15.43
2023-03-22T03:56:32.206Z,14.00
2023-03-22T03:58:27.262Z,14.97
2023-03-22T04:00:25.449Z,16.03
2023-03-22T04:02:20.428Z,15.37
2023-03-22T04:04:15.457Z,15.70
2023-03-22T04:06:11.696Z,15.37
2023-03-22T04:08:06.861Z,15.33
2023-03-22T04:10:03.673Z,14.80
2023-03-22T04:12:00.129Z,14.73
2023-03-22T04:13:56.231Z,15.80
2023-03-22T04:15:57.456Z,15.13
2023-03-22T04:17:53.778Z,15.57
2023-03-22T04:19:52.164Z,15.40
2023-03-22T04:21:47.793Z,15.83
2023-03-22T04:23:46.641Z,15.83
2023-03-22T04:25:42.011Z,15.63
2023-03-22T04:27:37.005Z,15.40
2023-03-22T04:29:32.364Z,16.03
2023-03-22T04:31:30.031Z,14.93
2023-03-22T04:33:28.295Z,14.80
2023-03-22T04:35:23.364Z,15.90
2023-03-22T04:37:19.517Z,15.33
2023-03-22T04:39:15.335Z,15.50
2023-03-22T04:41:10.469Z,16.53
2023-03-22T04:43:06.398Z,15.37
2023-03-22T04:45:03.518Z,16.23
2023-03-22T04:47:01.580Z,15.00
2023-03-22T04:48:56.570Z,15.87
2023-03-22T04:50:53.531Z,16.53
2023-03-22T04:52:50.053Z,17.93
2023-03-22T04:54:45.426Z,15.90
2023-03-22T04:56:40.343Z,15.67
2023-03-22T04:58:37.344Z,15.90
2023-03-22T05:00:34.229Z,15.97
2023-03-22T05:02:32.603Z,16.67
2023-03-22T05:04:28.305Z,15.93
2023-03-22T05:06:24.324Z,16.43
2023-03-22T05:08:19.488Z,16.57
2023-03-22T05:10:14.843Z,16.57
2023-03-22T05:12:10.257Z,16.83
2023-03-22T05:14:06.866Z,15.80
2023-03-22T05:16:02.230Z,16.43
2023-03-22T05:18:00.189Z,16.10
2023-03-22T05:19:55.125Z,16.13
2023-03-22T05:21:57.932Z,16.73
2023-03-22T05:23:52.986Z,17.77
2023-03-22T05:25:50.013Z,15.73
2023-03-22T05:27:45.200Z,16.67
2023-03-22T05:29:44.892Z,15.40
2023-03-22T05:31:40.594Z,16.23
2023-03-22T05:33:38.430Z,14.97
2023-03-22T05:35:34.624Z,17.03
2023-03-22T05:37:29.962Z,16.17
2023-03-22T05:39:25.381Z,15.17
2023-03-22T05:41:20.452Z,17.07
2023-03-22T05:43:15.996Z,16.13
2023-03-22T05:45:12.924Z,16.87
2023-03-22T05:47:08.479Z,15.83
2023-03-22T05:49:06.129Z,16.13
2023-03-22T05:51:03.442Z,17.03
2023-03-22T05:52:58.892Z,17.00
2023-03-22T05:54:54.295Z,15.93
2023-03-22T05:56:49.310Z,15.63
2023-03-22T05:58:45.464Z,15.67
2023-03-22T06:00:40.935Z,16.87
2023-03-22T06:02:38.633Z,15.67
2023-03-22T06:04:36.469Z,16.63
2023-03-22T06:06:31.786Z,16.17
2023-03-22T06:08:27.347Z,14.27
2023-03-22T06:10:24.309Z,17.30
2023-03-22T06:12:22.688Z,15.90
2023-03-22T06:14:18.039Z,15.50
2023-03-22T06:16:13.910Z,16.33
2023-03-22T06:18:10.388Z,14.63
2023-03-22T06:20:11.930Z,14.93
2023-03-22T06:22:07.362Z,14.80
2023-03-22T06:24:02.359Z,15.70
2023-03-22T06:25:57.959Z,14.47
2023-03-22T06:27:52.993Z,15.33
2023-03-22T06:29:51.109Z,15.93
2023-03-22T06:31:47.644Z,15.80
2023-03-22T06:33:44.901Z,15.43
2023-03-22T06:35:45.988Z,15.23
2023-03-22T06:37:46.901Z,14.93
2023-03-22T06:39:42.710Z,15.13
2023-03-22T06:41:38.341Z,15.13
2023-03-22T06:43:33.530Z,14.57
2023-03-22T06:45:33.351Z,14.50
2023-03-22T06:47:28.690Z,14.90
2023-03-22T06:50:04.303Z,14.97
2023-03-22T06:52:02.766Z,14.07
2023-03-22T06:53:59.479Z,14.50
2023-03-22T06:55:55.563Z,14.13
2023-03-22T06:57:50.784Z,14.47
2023-03-22T06:59:46.148Z,13.20
2023-03-22T07:01:41.368Z,13.20
2023-03-22T07:03:36.757Z,12.70
2023-03-22T07:05:31.801Z,13.47
2023-03-22T07:07:30.310Z,12.63
2023-03-22T07:09:27.318Z,10.87
2023-03-22T07:11:23.339Z,11.17
2023-03-22T07:13:18.640Z,12.67
2023-03-22T07:15:14.518Z,12.60
2023-03-22T07:17:10.297Z,12.67
2023-03-22T07:19:09.120Z,12.03
2023-03-22T07:21:04.994Z,13.00
2023-03-22T07:23:04.640Z,12.87
2023-03-22T07:25:01.895Z,11.70
2023-03-22T07:26:58.863Z,12.17
2023-03-22T07:28:54.850Z,11.73
2023-03-22T07:35:22.352Z,8.10
2023-03-22T07:45:51.686Z,12.53
2023-03-22T07:48:47.041Z,12.43
2023-03-22T07:50:56.173Z,11.60
2023-03-22T07:53:32.563Z,11.90
2023-03-22T07:56:39.272Z,12.33
2023-03-22T07:59:02.303Z,11.33
2023-03-22T08:01:48.739Z,11.60
2023-03-22T08:07:16.011Z,10.83
2023-03-22T08:10:01.327Z,10.87
2023-03-22T08:15:32.747Z,9.47
2023-03-22T08:18:27.786Z,8.43
2023-03-22T08:20:31.990Z,10.63
2023-03-22T08:22:29.742Z,10.97
2023-03-22T08:24:25.054Z,10.90
2023-03-22T08:26:20.371Z,11.03
2023-03-22T08:28:15.963Z,10.53
2023-03-22T08:30:12.593Z,10.40
2023-03-22T08:32:10.735Z,9.33
2023-03-22T08:34:05.769Z,10.10
2023-03-22T08:36:09.179Z,11.30
2023-03-22T08:38:04.194Z,9.50
2023-03-22T08:39:59.938Z,8.23
2023-03-22T08:41:55.408Z,10.13
2023-03-22T08:43:51.080Z,10.50
2023-03-22T08:45:50.372Z,9.57
2023-03-22T08:47:53.585Z,9.87
2023-03-22T08:49:49.473Z,8.47
2023-03-22T08:54:37.444Z,8.57
2023-03-22T08:56:38.376Z,9.10
2023-03-22T08:58:33.595Z,8.87
2023-03-22T09:00:39.312Z,4.27
2023-03-22T09:02:42.874Z,9.33
2023-03-22T09:04:41.134Z,6.80
2023-03-22T09:06:37.550Z,9.50
2023-03-22T09:08:33.478Z,7.87
2023-03-22T09:10:28.809Z,9.53
2023-03-22T09:12:24.828Z,9.37
2023-03-22T09:14:20.819Z,8.30
2023-03-22T09:16:20.988Z,9.57
2023-03-22T09:18:19.681Z,8.10
2023-03-22T09:20:19.352Z,9.13
2023-03-22T09:22:14.874Z,6.53
2023-03-22T09:24:11.470Z,8.07
2023-03-22T09:26:08.360Z,7.77
2023-03-22T09:28:16.936Z,9.20
2023-03-22T09:30:13.144Z,5.97
2023-03-22T09:32:08.886Z,6.63
2023-03-22T09:34:03.822Z,8.63
2023-03-22T09:36:02.029Z,8.43
2023-03-22T09:37:58.993Z,8.37
2023-03-22T09:39:54.479Z,7.60
2023-03-22T09:41:53.419Z,8.50
2023-03-22T09:43:54.100Z,8.43
2023-03-22T09:45:53.024Z,8.90
2023-03-22T09:47:53.810Z,8.47
2023-03-22T09:49:54.223Z,8.63
2023-03-22T09:51:54.629Z,9.23
2023-03-22T09:53:50.044Z,7.90
2023-03-22T09:55:53.143Z,8.67
2023-03-22T09:57:52.144Z,8.27
2023-03-22T09:59:59.279Z,8.90
2023-03-22T10:01:59.552Z,8.83
2023-03-22T10:04:26.498Z,8.63
2023-03-22T10:06:23.458Z,8.40
2023-03-22T10:08:35.980Z,8.87
2023-03-22T10:10:31.757Z,5.87
2023-03-22T10:12:31.973Z,7.07
2023-03-22T10:14:33.628Z,8.40
2023-03-22T10:16:35.894Z,8.67
2023-03-22T10:18:37.650Z,9.03
2023-03-22T10:20:39.134Z,8.17
2023-03-22T10:22:38.348Z,7.50
2023-03-22T10:24:38.419Z,8.33
2023-03-22T10:26:39.822Z,8.47
2023-03-22T10:28:40.484Z,7.93
2023-03-22T10:30:43.334Z,7.50
2023-03-22T10:32:57.146Z,7.20
2023-03-22T10:34:54.867Z,4.57
2023-03-22T10:36:52.825Z,3.97
2023-03-22T10:38:52.964Z,7.85
2023-03-22T10:40:52.607Z,6.47
2023-03-22T10:42:55.968Z,5.95
2023-03-22T10:44:54.914Z,5.03
2023-03-22T10:46:52.714Z,8.03
2023-03-22T10:48:51.105Z,7.22
2023-03-22T10:50:48.667Z,6.75
2023-03-22T10:52:51.184Z,7.20
2023-03-22T10:54:47.219Z,7.05
2023-03-22T10:56:46.326Z,6.50
2023-03-22T10:58:43.551Z,6.78
2023-03-22T11:00:42.264Z,6.70
2023-03-22T11:02:38.195Z,6.03
2023-03-22T11:04:34.117Z,5.85
2023-03-22T11:06:32.979Z,5.97
2023-03-22T11:08:28.652Z,6.40
2023-03-22T11:10:31.295Z,6.20
2023-03-22T11:12:30.020Z,5.03
2023-03-22T11:14:30.822Z,5.85
2023-03-22T11:16:26.888Z,6.20
2023-03-22T11:18:22.773Z,4.95
2023-03-22T11:20:20.112Z,6.60
2023-03-22T11:22:27.594Z,5.13
2023-03-22T11:24:24.137Z,6.22
2023-03-22T11:26:29.130Z,5.90
2023-03-22T11:28:32.168Z,5.93
2023-03-22T11:30:30.171Z,5.95
2023-03-22T11:32:29.919Z,5.05
2023-03-22T11:34:27.223Z,5.70
2023-03-22T11:36:22.999Z,5.72
2023-03-22T11:38:32.811Z,5.63
2023-03-22T11:40:30.236Z,4.05
2023-03-22T11:42:25.613Z,5.28
2023-03-22T11:44:26.002Z,5.82
2023-03-22T11:46:21.987Z,5.10
2023-03-22T11:48:20.502Z,4.67
2023-03-22T11:50:30.700Z,4.83
2023-03-22T11:52:29.256Z,2.20
2023-03-22T11:54:32.649Z,5.00
2023-03-22T11:56:35.125Z,4.13
2023-03-22T11:58:32.281Z,4.60
2023-03-22T12:00:34.304Z,3.10
2023-03-22T12:02:32.842Z,3.08
2023-03-22T12:04:31.486Z,4.75
2023-03-22T12:06:34.055Z,5.00
2023-03-22T12:08:36.248Z,4.93
2023-03-22T12:10:34.298Z,6.05
2023-03-22T12:12:34.295Z,4.95
2023-03-22T12:14:32.443Z,5.40
2023-03-22T12:16:35.868Z,4.47
2023-03-22T12:18:37.603Z,5.60
2023-03-22T12:20:43.965Z,4.90
2023-03-22T12:22:45.697Z,5.35
2023-03-22T12:24:42.888Z,4.22
2023-03-22T12:26:41.344Z,5.55
2023-03-22T12:28:43.832Z,4.90
2023-03-22T12:30:43.278Z,5.00
2023-03-22T12:32:46.191Z,3.92
2023-03-22T12:34:47.443Z,4.10
2023-03-22T12:36:48.755Z,4.10
2023-03-22T12:38:49.484Z,3.83
2023-03-22T12:40:46.108Z,3.92
2023-03-22T12:42:54.139Z,4.00
2023-03-22T12:45:04.157Z,2.67
2023-03-22T12:47:02.576Z,3.13
2023-03-22T12:49:05.295Z,3.88
2023-03-22T12:51:03.183Z,3.45
2023-03-22T12:52:59.469Z,3.17
2023-03-22T12:54:56.288Z,3.20
2023-03-22T12:57:07.005Z,3.13
2023-03-22T12:59:06.785Z,3.05
2023-03-22T13:01:20.962Z,2.90
2023-03-22T13:03:29.599Z,2.42
2023-03-22T13:05:30.910Z,2.78
2023-03-22T13:07:41.144Z,2.42
2023-03-22T13:09:43.084Z,2.33
2023-03-22T13:11:38.406Z,2.55
2023-03-22T13:13:44.530Z,1.70
2023-03-22T13:15:42.630Z,2.78
2023-03-22T13:17:47.593Z,2.53
2023-03-22T13:19:55.327Z,2.45
2023-03-22T13:21:54.849Z,1.67
2023-03-22T13:24:00.717Z,2.72
2023-03-22T13:26:07.953Z,2.30
2023-03-22T13:28:06.833Z,1.38
2023-03-22T13:30:05.797Z,2.10
2023-03-22T13:32:02.735Z,1.95
2023-03-22T13:33:58.525Z,1.67
2023-03-22T13:35:57.263Z,1.88
2023-03-22T13:37:55.565Z,2.65
2023-03-22T13:39:54.651Z,2.25
2023-03-22T13:42:06.042Z,2.58
2023-03-22T13:44:03.303Z,1.70
2023-03-22T13:46:06.865Z,1.90
2023-03-22T13:48:09.450Z,1.90
2023-03-22T13:50:09.560Z,2.67
2023-03-22T13:52:10.063Z,2.05
2023-03-22T13:54:13.374Z,2.45
2023-03-22T13:56:10.849Z,1.83
2023-03-22T13:58:19.383Z,1.67
2023-03-22T14:00:48.054Z,1.70
2023-03-22T14:02:48.663Z,1.63
2023-03-22T14:04:48.424Z,1.70
2023-03-22T14:06:51.943Z,2.55
2023-03-22T14:08:52.622Z,2.20
2023-03-22T14:17:12.819Z,2.03
2023-03-22T14:19:10.941Z,1.95
2023-03-22T14:21:22.270Z,2.13
2023-03-22T14:53:15.595Z,1.92
2023-03-22T14:55:18.286Z,2.15
2023-03-22T14:57:19.269Z,2.38
2023-03-22T14:59:23.482Z,2.10
2023-03-22T15:01:23.349Z,2.25
2023-03-22T15:03:26.868Z,2.08
2023-03-22T15:05:24.910Z,1.80
2023-03-22T15:07:21.836Z,2.10
2023-03-22T15:09:21.119Z,2.45
2023-03-22T15:11:18.257Z,2.42
2023-03-22T15:13:16.716Z,2.10
2023-03-22T15:15:13.769Z,1.90
2023-03-22T15:17:11.433Z,1.83
2023-03-22T15:19:09.390Z,1.13
2023-03-22T15:21:06.490Z,2.10
2023-03-22T15:23:09.520Z,2.00
2023-03-22T15:25:07.281Z,1.60
2023-03-22T15:27:05.083Z,2.00
2023-03-22T15:29:05.292Z,1.70
2023-03-22T15:31:04.001Z,1.83
2023-03-22T15:33:07.174Z,2.05
2023-03-22T15:35:09.312Z,1.83
2023-03-22T15:37:05.071Z,1.45
2023-03-22T15:39:05.148Z,1.92
2023-03-22T15:41:00.376Z,2.03
2023-03-22T15:42:55.777Z,1.98
2023-03-22T15:45:01.084Z,1.95
2023-03-22T15:46:59.312Z,1.60
2023-03-22T15:49:02.062Z,1.20
2023-03-22T15:50:57.465Z,2.13
2023-03-22T15:52:54.532Z,1.90
2023-03-22T15:54:59.501Z,1.55
2023-03-22T15:56:54.682Z,1.40
2023-03-22T15:58:58.145Z,2.10
2023-03-22T16:00:56.335Z,1.95
2023-03-22T16:02:58.946Z,2.00
2023-03-22T16:04:55.576Z,1.85
2023-03-22T16:06:51.715Z,1.95
2023-03-22T16:08:46.959Z,1.70
2023-03-22T16:10:45.147Z,1.88
2023-03-22T16:12:43.152Z,1.98
2023-03-22T16:14:40.038Z,1.98
2023-03-22T16:16:38.293Z,1.88
2023-03-22T16:18:35.222Z,1.70
2023-03-22T16:20:35.045Z,2.30
2023-03-22T16:23:08.001Z,2.05
2023-03-22T16:25:27.634Z,2.05
2023-03-22T16:27:59.490Z,2.55
2023-03-22T16:30:17.653Z,2.30
2023-03-22T16:33:03.893Z,2.25
2023-03-22T16:35:29.816Z,2.20
2023-03-22T16:37:43.462Z,1.80
2023-03-22T16:39:42.380Z,2.60
2023-03-22T16:41:43.095Z,2.55
2023-03-22T16:43:38.554Z,1.80
2023-03-22T16:45:36.404Z,2.08
2023-03-22T16:47:37.218Z,2.25
2023-03-22T16:49:33.586Z,65.43
2023-03-22T16:51:30.969Z,2.30
2023-03-22T16:53:28.428Z,2.25
2023-03-22T16:55:28.525Z,2.38
2023-03-22T16:57:27.733Z,2.25
2023-03-22T16:59:22.897Z,1.30
2023-03-22T17:01:20.683Z,2.33
2023-03-22T17:03:27.770Z,2.00
2023-03-22T17:12:21.622Z,1.63
2023-03-22T17:15:50.715Z,1.75
2023-03-22T17:22:06.860Z,1.90
2023-03-22T17:24:07.726Z,1.38
2023-03-22T17:26:02.898Z,1.60
2023-03-22T17:28:01.163Z,1.83
2023-03-22T17:29:56.247Z,1.40
2023-03-22T17:31:57.941Z,1.40
2023-03-22T17:34:00.676Z,1.88
2023-03-22T17:35:58.194Z,1.90
2023-03-22T17:37:56.248Z,1.92
2023-03-22T17:41:55.891Z,2.35
2023-03-22T17:43:51.362Z,1.83
2023-03-22T17:46:30.314Z,2.25
2023-03-22T17:48:06.158Z,1.55
2023-03-22T17:50:01.625Z,1.90
2023-03-22T17:52:01.510Z,2.50
2023-03-22T18:51:10.907Z,2.00
2023-03-22T18:53:18.340Z,1.83
2023-03-22T18:55:28.898Z,2.70
2023-03-22T18:57:48.000Z,2.42
2023-03-22T19:00:07.583Z,2.33
2023-03-22T19:02:20.731Z,2.03
2023-03-22T19:04:25.728Z,2.72
2023-03-22T19:06:24.463Z,2.33
2023-03-22T19:08:26.672Z,2.85
2023-03-22T19:10:23.800Z,2.25
2023-03-22T19:12:21.549Z,2.30
2023-03-22T19:15:08.939Z,2.30
2023-03-22T19:16:32.234Z,2.10
2023-03-22T19:18:28.080Z,2.53
2023-03-22T19:20:23.644Z,2.40
2023-03-22T19:22:38.186Z,2.53
2023-03-22T19:24:34.473Z,2.50
2023-03-22T19:28:34.411Z,2.22
2023-03-22T19:30:34.704Z,2.13
2023-03-22T19:32:29.821Z,2.97
2023-03-22T19:34:25.841Z,2.42
2023-03-22T19:36:20.997Z,2.10
2023-03-22T19:38:22.641Z,2.20
2023-03-22T19:41:20.376Z,2.30
2023-03-22T19:42:37.203Z,2.22
2023-03-22T19:44:32.495Z,1.90
2023-03-22T19:46:30.256Z,1.98
2023-03-22T19:48:25.637Z,2.25
2023-03-22T19:50:21.527Z,2.30
2023-03-22T19:52:17.334Z,2.77
2023-03-22T19:54:33.016Z,2.03
2023-03-22T19:56:50.838Z,2.28
2023-03-22T19:58:56.258Z,1.80
2023-03-22T20:00:56.270Z,2.03
2023-03-22T20:02:52.112Z,2.00
2023-03-22T20:04:47.627Z,2.23
2023-03-22T20:06:43.393Z,2.05
2023-03-22T20:08:43.943Z,2.40
2023-03-22T20:10:54.181Z,2.72
2023-03-22T20:12:52.083Z,2.53
2023-03-22T20:14:47.961Z,2.42
2023-03-22T20:16:43.434Z,2.60
2023-03-22T20:18:41.011Z,2.30
2023-03-22T20:20:36.497Z,2.58
2023-03-22T20:22:32.277Z,2.40
2023-03-22T20:24:27.616Z,2.60
2023-03-22T20:26:26.010Z,2.05
2023-03-22T20:28:24.478Z,2.50
2023-03-22T20:30:22.628Z,2.17
2023-03-22T20:32:17.905Z,2.23
2023-03-22T20:34:13.798Z,2.70
2023-03-22T20:36:11.698Z,3.10
2023-03-22T20:38:08.222Z,2.23
2023-03-22T20:40:05.610Z,2.13
2023-03-22T20:42:26.527Z,2.15
2023-03-22T20:44:27.016Z,2.25
2023-03-22T20:46:22.714Z,2.80
2023-03-22T20:48:23.072Z,2.40
2023-03-22T20:50:54.263Z,2.23
2023-03-22T20:52:53.475Z,2.20
2023-03-22T20:55:33.652Z,2.10
2023-03-22T20:58:01.068Z,3.03
2023-03-22T21:00:01.275Z,2.42
2023-03-22T21:01:57.493Z,2.63
2023-03-22T21:03:57.714Z,2.35
2023-03-22T21:05:54.241Z,2.03
2023-03-22T21:07:54.329Z,2.13
2023-03-22T21:09:56.470Z,2.47
2023-03-22T21:12:26.929Z,2.57
2023-03-22T21:14:56.602Z,2.20
2023-03-22T21:17:13.796Z,2.37
2023-03-22T21:21:26.999Z,2.00
2023-03-22T22:11:01.234Z,2.28
2023-03-22T22:14:24.173Z,2.20
2023-03-22T22:50:19.720Z,2.00
2023-03-22T22:52:50.779Z,2.37
2023-03-22T22:55:48.780Z,2.37
2023-03-22T22:57:41.063Z,1.87
2023-03-22T23:23:39.663Z,2.03
2023-03-22T23:25:59.528Z,2.17
2023-03-22T23:54:05.624Z,1.70
